Time;durP1;ratioP1;P1;durP2;ratioP2;P2;SDS_P1;SDS_P2;PMS_P1;PMS_P2;Temp;Humidity;BMP_temperature;BMP_pressure;BME280_temperature;BME280_humidity;BME280_pressure;Samples;Min_cycle;Max_cycle;Signal;HPM_P1;HPM_P2
2022/09/06 00:01:14;;;;;;;;;;;;;;;28.67;42.29;94494.72;5004141;28;7269;-61
2022/09/06 00:03:42;;;;;;;;;;;;;;;28.67;42.66;94486.41;4979364;28;7083;-60
2022/09/06 00:06:18;;;;;;;;;;;;;;;28.66;42.65;94496.00;5005294;28;7532;-60
2022/09/06 00:08:46;;;;;;;;;;;;;;;28.63;42.38;94485.97;4987686;28;7009;-62
2022/09/06 00:11:19;;;;;;;;;;;;;;;28.62;42.68;94489.28;5007406;28;7320;-61
2022/09/06 00:13:49;;;;;;;;;;;;;;;28.62;42.88;94490.03;4991147;28;7386;-61
2022/09/06 00:16:22;;;;;;;;;;;;;;;28.64;42.79;94487.47;4990588;28;7504;-61
2022/09/06 00:18:55;;;;;;;;;;;;;;;28.66;42.16;94486.94;4982430;28;7216;-61
2022/09/06 00:21:35;;;;;;;;;;;;;;;28.67;42.07;94480.88;4984835;28;7140;-61
2022/09/06 00:24:03;;;;;;;;;;;;;;;28.68;42.49;94487.16;5004315;28;6973;-61
2022/09/06 00:26:31;;;;;;;;;;;;;;;28.66;42.74;94492.47;4984789;28;7016;-61
2022/09/06 00:28:57;;;;;;;;;;;;;;;28.66;42.52;94493.25;4987202;28;7246;-61
2022/09/06 00:31:25;;;;;;;;;;;;;;;28.65;42.75;94500.03;5004857;28;9463;-61
2022/09/06 00:33:51;;;;;;;;;;;;;;;28.63;42.59;94502.59;4985630;28;7160;-61
2022/09/06 00:36:18;;;;;;;;;;;;;;;28.65;42.36;94502.81;5004176;28;9679;-61
2022/09/06 00:38:46;;;;;;;;;;;;;;;28.65;42.71;94505.56;5003992;28;7146;-61
2022/09/06 00:41:15;;;;;;;;;;;;;;;28.64;42.35;94495.78;4980852;28;7312;-61
2022/09/06 00:43:41;;;;;;;;;;;;;;;28.64;42.52;94506.84;4985982;28;7643;-60
2022/09/06 00:46:14;;;;;;;;;;;;;;;28.65;41.92;94496.50;4985352;28;7357;-61
2022/09/06 00:48:44;;;;;;;;;;;;;;;28.65;42.27;94504.81;4985429;28;6987;-61
2022/09/06 00:51:13;;;;;;;;;;;;;;;28.66;42.55;94501.53;4992639;28;9924;-61
2022/09/06 00:53:53;;;;;;;;;;;;;;;28.64;42.50;94504.09;5005407;28;10606;-61
2022/09/06 00:56:26;;;;;;;;;;;;;;;28.65;42.24;94502.81;4996312;28;7234;-61
2022/09/06 00:59:05;;;;;;;;;;;;;;;28.65;42.00;94510.34;4993076;28;9709;-61
2022/09/06 01:01:46;;;;;;;;;;;;;;;28.60;42.43;94509.16;4989628;28;7391;-61
2022/09/06 01:04:16;;;;;;;;;;;;;;;28.60;42.39;94498.09;4986325;28;7495;-61
2022/09/06 01:07:25;;;;;;;;;;;;;;;28.62;42.58;94508.66;4988522;28;7296;-61
2022/09/06 01:09:54;;;;;;;;;;;;;;;28.58;43.14;94508.94;5012779;28;7232;-61
2022/09/06 01:13:00;;;;;;;;;;;;;;;28.61;42.85;94507.16;5010644;28;7155;-61
2022/09/06 01:19:07;;;;;;;;;;;;;;;28.51;42.22;94520.63;4990708;28;7505;-61
2022/09/06 01:22:15;;;;;;;;;;;;;;;28.53;42.31;94515.31;5005940;28;7079;-61
2022/09/06 01:24:47;;;;;;;;;;;;;;;28.55;42.99;94514.78;4983344;28;9280;-61
2022/09/06 01:27:39;;;;;;;;;;;;;;;28.56;42.53;94519.78;5007241;28;7340;-61
2022/09/06 01:30:11;;;;;;;;;;;;;;;28.54;42.53;94516.03;4996571;28;9615;-61
2022/09/06 01:33:15;;;;;;;;;;;;;;;28.53;42.88;94520.84;4992882;28;7413;-60
2022/09/06 01:35:54;;;;;;;;;;;;;;;28.53;42.84;94515.31;4986056;28;7596;-61
2022/09/06 01:38:21;;;;;;;;;;;;;;;28.53;42.74;94522.84;5006625;28;8931;-61
2022/09/06 01:40:52;;;;;;;;;;;;;;;28.55;42.66;94523.06;5007750;28;7300;-61
2022/09/06 01:43:29;;;;;;;;;;;;;;;28.52;43.00;94519.34;5010171;28;7222;-61
2022/09/06 01:46:18;;;;;;;;;;;;;;;28.55;42.34;94520.31;5010866;28;8022;-61
2022/09/06 01:52:18;;;;;;;;;;;;;;;28.53;42.58;94522.84;4991768;28;9450;-61
2022/09/06 01:55:28;;;;;;;;;;;;;;;28.52;42.82;94524.13;4985496;28;7095;-61
2022/09/06 01:58:23;;;;;;;;;;;;;;;28.54;42.59;94516.03;4995125;28;9290;-61
2022/09/06 02:01:33;;;;;;;;;;;;;;;28.54;42.81;94516.03;4992002;28;7312;-61
2022/09/06 02:04:46;;;;;;;;;;;;;;;28.52;42.76;94511.03;5010772;28;7378;-61
2022/09/06 02:07:21;;;;;;;;;;;;;;;28.52;42.71;94513.81;4985716;28;7060;-61
2022/09/06 02:09:58;;;;;;;;;;;;;;;28.53;42.86;94515.31;5009323;28;7098;-60
2022/09/06 02:12:35;;;;;;;;;;;;;;;28.52;42.58;94521.34;4974676;28;9158;-61
2022/09/06 02:15:33;;;;;;;;;;;;;;;28.49;42.46;94506.56;4985517;28;7199;-61
2022/09/06 02:18:23;;;;;;;;;;;;;;;28.50;42.75;94516.34;4930718;28;9415;-61
2022/09/06 02:21:05;;;;;;;;;;;;;;;28.49;42.54;94509.34;4950447;28;9071;-61
2022/09/06 02:23:39;;;;;;;;;;;;;;;28.49;42.33;94514.88;4939382;29;7241;-61
2022/09/06 02:26:22;;;;;;;;;;;;;;;28.49;42.69;94509.34;4952443;28;9711;-61
2022/09/06 02:28:48;;;;;;;;;;;;;;;28.48;43.10;94504.31;4953626;28;9574;-61
2022/09/06 02:31:28;;;;;;;;;;;;;;;28.49;42.86;94505.81;4954508;28;10773;-61
2022/09/06 02:33:55;;;;;;;;;;;;;;;28.50;42.39;94504.53;4952033;28;6869;-61
2022/09/06 02:36:39;;;;;;;;;;;;;;;28.49;42.26;94509.34;4956211;28;9820;-61
2022/09/06 02:39:16;;;;;;;;;;;;;;;28.50;42.44;94515.59;4948758;28;7003;-61
2022/09/06 02:41:47;;;;;;;;;;;;;;;28.49;42.72;94509.34;4956225;28;7301;-61
2022/09/06 02:44:44;;;;;;;;;;;;;;;28.48;42.38;94516.13;4941461;28;6993;-61
2022/09/06 02:47:10;;;;;;;;;;;;;;;28.47;42.83;94517.41;4941493;28;9480;-61
2022/09/06 02:49:36;;;;;;;;;;;;;;;28.48;42.86;94518.91;4936663;28;7188;-61
2022/09/06 02:52:04;;;;;;;;;;;;;;;28.50;42.76;94516.34;4928548;28;7221;-61
2022/09/06 02:54:39;;;;;;;;;;;;;;;28.49;42.66;94514.13;4950204;28;9066;-61
2022/09/06 02:57:07;;;;;;;;;;;;;;;28.48;42.41;94507.84;4980567;28;8429;-61
2022/09/06 02:59:42;;;;;;;;;;;;;;;28.47;42.28;94511.88;4964209;28;7388;-61
2022/09/06 03:02:13;;;;;;;;;;;;;;;28.46;42.63;94512.41;4972339;28;7339;-60
2022/09/06 03:04:39;;;;;;;;;;;;;;;28.44;42.58;94510.16;4955854;28;7076;-61
2022/09/06 03:07:19;;;;;;;;;;;;;;;28.45;43.08;94508.88;4965238;28;6981;-61
2022/09/06 03:09:45;;;;;;;;;;;;;;;28.45;42.27;94500.56;4952337;28;7477;-61
2022/09/06 03:12:14;;;;;;;;;;;;;;;28.44;42.82;94499.09;4967864;28;7569;-61
2022/09/06 03:14:48;;;;;;;;;;;;;;;28.44;42.56;94503.88;4974105;28;6951;-61
2022/09/06 03:17:15;;;;;;;;;;;;;;;28.44;42.65;94499.09;4973742;28;7027;-61
2022/09/06 03:19:57;;;;;;;;;;;;;;;28.45;42.34;94503.34;4960557;28;8497;-60
2022/09/06 03:22:38;;;;;;;;;;;;;;;28.43;42.45;94500.38;4985687;28;9570;-61
2022/09/06 03:25:37;;;;;;;;;;;;;;;28.43;42.70;94505.91;4989239;28;7330;-61
2022/09/06 03:28:02;;;;;;;;;;;;;;;28.43;42.22;94494.81;4949981;28;9257;-61
2022/09/06 03:30:28;;;;;;;;;;;;;;;28.42;42.62;94498.88;4935431;28;7089;-61
2022/09/06 03:32:59;;;;;;;;;;;;;;;28.42;42.76;94498.13;4936109;28;7277;-61
2022/09/06 03:35:30;;;;;;;;;;;;;;;28.43;42.90;94503.13;4952425;28;6979;-61
2022/09/06 03:37:56;;;;;;;;;;;;;;;28.42;42.67;94496.13;4952573;28;7227;-61
2022/09/06 03:40:37;;;;;;;;;;;;;;;28.41;42.90;94497.38;4950639;28;7056;-61
2022/09/06 03:43:12;;;;;;;;;;;;;;;28.40;42.62;94495.91;4953554;28;8780;-61
2022/09/06 03:45:58;;;;;;;;;;;;;;;28.42;42.68;94500.91;4935104;28;7007;-61
2022/09/06 03:48:33;;;;;;;;;;;;;;;28.43;42.43;94500.38;4952299;28;7406;-61
2022/09/06 03:51:11;;;;;;;;;;;;;;;28.42;42.21;94498.13;4950560;28;9451;-61
2022/09/06 03:53:37;;;;;;;;;;;;;;;28.40;42.62;94492.38;4947255;28;7245;-60
2022/09/06 03:56:06;;;;;;;;;;;;;;;28.42;43.03;94492.59;4935224;28;7251;-61
2022/09/06 03:58:47;;;;;;;;;;;;;;;28.41;42.58;94493.84;4952855;28;7419;-61
2022/09/06 04:01:15;;;;;;;;;;;;;;;28.37;42.88;94488.63;4951558;28;7276;-61
2022/09/06 04:03:41;;;;;;;;;;;;;;;28.38;42.64;94494.94;4971587;28;7376;-61
2022/09/06 04:06:12;;;;;;;;;;;;;;;28.37;42.67;94499.72;4970585;28;7227;-61
2022/09/06 04:08:45;;;;;;;;;;;;;;;28.36;42.76;94493.41;4983499;28;7020;-61
2022/09/06 04:11:20;;;;;;;;;;;;;;;28.37;42.75;94499.72;4998383;28;7055;-61
2022/09/06 04:13:48;;;;;;;;;;;;;;;28.35;42.80;94503.00;5005724;28;7090;-61
2022/09/06 04:16:26;;;;;;;;;;;;;;;28.36;42.93;94501.00;5007015;28;7467;-61
2022/09/06 04:18:53;;;;;;;;;;;;;;;28.34;42.75;94506.28;4990337;28;7160;-61
2022/09/06 04:21:19;;;;;;;;;;;;;;;28.33;42.71;94507.56;4980782;28;8687;-62
2022/09/06 04:23:45;;;;;;;;;;;;;;;28.31;42.56;94505.34;5009562;28;7396;-60
2022/09/06 04:26:11;;;;;;;;;;;;;;;28.32;42.91;94506.81;5010885;28;7199;-61
2022/09/06 04:28:39;;;;;;;;;;;;;;;28.33;42.66;94510.34;4987299;28;7287;-61
2022/09/06 04:31:05;;;;;;;;;;;;;;;28.32;42.92;94512.34;4996934;28;9112;-60
2022/09/06 04:33:34;;;;;;;;;;;;;;;28.34;42.47;94514.59;5009204;28;9355;-61
2022/09/06 04:36:09;;;;;;;;;;;;;;;28.33;43.03;94513.09;4990957;28;9455;-61
2022/09/06 04:38:39;;;;;;;;;;;;;;;28.33;43.91;94518.63;4990115;28;7158;-61
2022/09/06 04:41:05;;;;;;;;;;;;;;;28.29;43.78;94518.19;4989558;28;7489;-61
2022/09/06 04:43:34;;;;;;;;;;;;;;;28.27;43.09;94509.69;5004454;28;7597;-61
2022/09/06 04:46:34;;;;;;;;;;;;;;;28.28;42.99;94513.94;4990456;28;7369;-60
2022/09/06 04:49:02;;;;;;;;;;;;;;;28.26;43.36;94528.28;4991449;28;9133;-60
2022/09/06 04:51:38;;;;;;;;;;;;;;;28.23;43.52;94518.25;4988195;28;7807;-60
2022/09/06 04:54:08;;;;;;;;;;;;;;;28.25;43.03;94518.47;5009495;28;7193;-60
2022/09/06 04:56:38;;;;;;;;;;;;;;;28.26;43.14;94525.53;4989160;28;7622;-60
2022/09/06 04:59:34;;;;;;;;;;;;;;;28.24;43.35;94527.31;4997288;28;7213;-61
2022/09/06 05:02:00;;;;;;;;;;;;;;;28.24;44.04;94524.56;4951341;28;8834;-61
2022/09/06 05:04:30;;;;;;;;;;;;;;;28.24;43.20;94525.31;4950879;28;7329;-60
2022/09/06 05:07:01;;;;;;;;;;;;;;;28.24;43.32;94527.31;4949582;28;8549;-60
2022/09/06 05:09:40;;;;;;;;;;;;;;;28.23;43.71;94525.84;4949972;28;7559;-60
2022/09/06 05:12:06;;;;;;;;;;;;;;;28.21;43.64;94534.63;4953108;28;9117;-59
2022/09/06 05:14:44;;;;;;;;;;;;;;;28.20;43.21;94526.88;4950009;28;7323;-60
2022/09/06 05:17:21;;;;;;;;;;;;;;;28.21;43.76;94526.34;4934898;28;9592;-60
2022/09/06 05:19:47;;;;;;;;;;;;;;;28.22;43.34;94533.38;4934608;28;7190;-60
2022/09/06 05:22:28;;;;;;;;;;;;;;;28.23;43.20;94528.59;4945687;28;9747;-60
2022/09/06 05:25:14;;;;;;;;;;;;;;;28.23;43.55;94534.13;4948861;28;9051;-60
2022/09/06 05:27:40;;;;;;;;;;;;;;;28.24;43.87;94530.09;4950523;28;7283;-61
2022/09/06 05:30:08;;;;;;;;;;;;;;;28.24;43.08;94528.06;4949346;28;9482;-60
2022/09/06 05:32:34;;;;;;;;;;;;;;;28.24;43.63;94536.38;4951604;28;10175;-60
2022/09/06 05:35:01;;;;;;;;;;;;;;;28.23;43.65;94534.84;4934955;29;7386;-60
2022/09/06 05:37:42;;;;;;;;;;;;;;;28.23;43.28;94528.59;4943459;28;7418;-60
2022/09/06 05:40:15;;;;;;;;;;;;;;;28.23;43.24;94540.41;5007749;28;8735;-60
2022/09/06 05:43:03;;;;;;;;;;;;;;;28.25;43.47;94539.88;5006169;28;7275;-60
2022/09/06 05:45:55;;;;;;;;;;;;;;;28.25;43.55;94534.34;4988803;28;9319;-60
2022/09/06 05:48:53;;;;;;;;;;;;;;;28.25;43.47;94539.88;4988760;28;7523;-60
2022/09/06 05:51:32;;;;;;;;;;;;;;;28.23;43.50;94534.84;4945544;28;7192;-60
2022/09/06 05:54:10;;;;;;;;;;;;;;;28.23;43.18;94536.91;4943802;28;7151;-60
2022/09/06 05:56:46;;;;;;;;;;;;;;;28.25;43.32;94537.13;4946095;28;7246;-60
2022/09/06 05:59:34;;;;;;;;;;;;;;;28.24;43.23;94535.63;4946077;28;7294;-60
2022/09/06 06:02:00;;;;;;;;;;;;;;;28.24;43.35;94538.38;4936668;28;7225;-60
2022/09/06 06:04:27;;;;;;;;;;;;;;;28.24;43.18;94539.13;4949064;28;7429;-60
2022/09/06 06:06:54;;;;;;;;;;;;;;;28.25;43.60;94537.13;4950554;28;7986;-60
2022/09/06 06:09:30;;;;;;;;;;;;;;;28.25;42.93;94535.06;4944814;28;7193;-60
2022/09/06 06:11:56;;;;;;;;;;;;;;;28.24;43.38;94532.84;4932308;28;9371;-60
2022/09/06 06:14:30;;;;;;;;;;;;;;;28.24;43.46;94543.91;4930213;28;7574;-60
2022/09/06 06:16:59;;;;;;;;;;;;;;;28.23;42.87;94543.16;4965437;28;7261;-60
2022/09/06 06:19:32;;;;;;;;;;;;;;;28.24;42.82;94546.69;4946697;28;9376;-60
2022/09/06 06:21:58;;;;;;;;;;;;;;;28.20;42.87;94547.00;4946039;28;7211;-59
2022/09/06 06:24:54;;;;;;;;;;;;;;;28.21;43.08;94547.72;4951572;28;7269;-60
2022/09/06 06:27:20;;;;;;;;;;;;;;;28.17;43.42;94542.50;4963008;28;9636;-60
2022/09/06 06:29:47;;;;;;;;;;;;;;;28.17;43.45;94544.50;4993507;28;7613;-60
2022/09/06 06:32:23;;;;;;;;;;;;;;;28.21;43.19;94542.94;4983698;28;7073;-60
2022/09/06 06:34:54;;;;;;;;;;;;;;;28.25;43.43;94553.72;4984692;28;9562;-60
2022/09/06 06:37:36;;;;;;;;;;;;;;;28.23;43.18;94553.50;4996980;28;7313;-60
2022/09/06 06:40:05;;;;;;;;;;;;;;;28.24;42.96;94554.97;4990385;28;7194;-60
2022/09/06 06:42:43;;;;;;;;;;;;;;;28.24;43.02;94552.22;4988542;28;7245;-60
2022/09/06 06:45:23;;;;;;;;;;;;;;;28.23;42.87;94547.97;4991152;28;7735;-59
2022/09/06 06:47:52;;;;;;;;;;;;;;;28.19;43.27;94548.25;4975679;28;7309;-60
2022/09/06 06:50:20;;;;;;;;;;;;;;;28.18;43.23;94546.00;4994964;28;9452;-60
2022/09/06 06:52:46;;;;;;;;;;;;;;;28.17;42.96;94550.03;5005383;28;6974;-60
2022/09/06 06:55:12;;;;;;;;;;;;;;;28.19;43.21;94547.50;4991884;28;7864;-60
2022/09/06 06:57:53;;;;;;;;;;;;;;;28.15;43.54;94547.06;5015696;28;6973;-60
2022/09/06 07:00:47;;;;;;;;;;;;;;;28.17;43.35;94544.50;5010151;28;9714;-60
2022/09/06 07:03:24;;;;;;;;;;;;;;;28.15;43.47;94542.28;4996549;28;9464;-60
2022/09/06 07:05:50;;;;;;;;;;;;;;;28.15;43.75;94545.03;4986097;28;9433;-60
2022/09/06 07:08:36;;;;;;;;;;;;;;;28.15;43.39;94544.28;5009852;28;9591;-60
2022/09/06 07:11:09;;;;;;;;;;;;;;;28.14;43.48;94549.06;5014655;28;7421;-60
2022/09/06 07:13:40;;;;;;;;;;;;;;;28.13;43.62;94544.81;4992409;28;7353;-60
2022/09/06 07:16:30;;;;;;;;;;;;;;;28.12;43.71;94526.72;5009340;28;8572;-60
2022/09/06 07:19:05;;;;;;;;;;;;;;;28.12;43.51;94537.78;4995528;28;7486;-61
2022/09/06 07:21:49;;;;;;;;;;;;;;;28.13;43.71;94535.78;5009281;28;9585;-60
2022/09/06 07:24:18;;;;;;;;;;;;;;;28.12;43.88;94548.13;4989535;28;7280;-60
2022/09/06 07:26:46;;;;;;;;;;;;;;;28.08;43.75;94545.63;5009244;28;9285;-61
2022/09/06 07:29:15;;;;;;;;;;;;;;;28.09;43.96;94546.38;4997063;28;7360;-60
2022/09/06 07:31:43;;;;;;;;;;;;;;;28.10;43.89;94548.63;5003727;28;10335;-60
2022/09/06 07:34:27;;;;;;;;;;;;;;;28.10;43.80;94548.63;4994706;28;7213;-60
2022/09/06 07:36:59;;;;;;;;;;;;;;;28.12;43.90;94548.13;5008682;28;8359;-61
2022/09/06 07:39:25;;;;;;;;;;;;;;;28.15;43.40;94547.06;5004269;28;7186;-60
2022/09/06 07:41:54;;;;;;;;;;;;;;;28.15;43.29;94538.75;4986038;28;7070;-60
2022/09/06 07:44:20;;;;;;;;;;;;;;;28.14;43.57;94548.34;5003796;28;7780;-60
2022/09/06 07:46:51;;;;;;;;;;;;;;;28.16;42.91;94543.78;4991051;28;9439;-60
2022/09/06 07:49:17;;;;;;;;;;;;;;;28.16;42.97;94540.25;5005832;28;7704;-61
2022/09/06 07:51:44;;;;;;;;;;;;;;;28.19;43.53;94541.97;4988865;28;8217;-60
2022/09/06 07:54:10;;;;;;;;;;;;;;;28.18;43.25;94543.25;4987636;28;7563;-60
2022/09/06 07:56:40;;;;;;;;;;;;;;;28.17;43.35;94548.03;5000363;28;9090;-60
2022/09/06 07:59:06;;;;;;;;;;;;;;;28.16;43.08;94549.31;4999866;28;7517;-60
2022/09/06 08:01:35;;;;;;;;;;;;;;;28.16;43.29;94554.84;5003913;28;7341;-61
2022/09/06 08:04:07;;;;;;;;;;;;;;;28.15;43.44;94555.34;4987425;28;7539;-60
2022/09/06 08:06:37;;;;;;;;;;;;;;;28.14;43.24;94562.16;4983234;28;7866;-60
2022/09/06 08:09:08;;;;;;;;;;;;;;;28.13;43.57;94568.97;4987853;28;7242;-60
2022/09/06 08:11:38;;;;;;;;;;;;;;;28.12;43.37;94568.19;4991852;28;7761;-60
2022/09/06 08:14:10;;;;;;;;;;;;;;;28.12;43.52;94575.78;5004516;28;9275;-60
2022/09/06 08:16:37;;;;;;;;;;;;;;;28.12;43.54;94582.03;4992416;28;9576;-60
2022/09/06 08:19:11;;;;;;;;;;;;;;;28.13;43.38;94583.53;4989329;28;6981;-60
2022/09/06 08:21:40;;;;;;;;;;;;;;;28.13;43.85;94591.06;4988099;28;6971;-60
2022/09/06 08:24:10;;;;;;;;;;;;;;;28.13;43.40;94599.38;4981616;28;7161;-60
2022/09/06 08:26:43;;;;;;;;;;;;;;;28.12;43.47;94597.91;5001698;28;7178;-60
2022/09/06 08:29:10;;;;;;;;;;;;;;;28.10;43.43;94606.69;5000374;28;7296;-60
2022/09/06 08:31:39;;;;;;;;;;;;;;;28.10;43.40;94608.72;4981734;28;7632;-60
2022/09/06 08:34:19;;;;;;;;;;;;;;;28.10;43.45;94611.50;4986250;28;7042;-60
2022/09/06 08:36:47;;;;;;;;;;;;;;;28.12;43.72;94600.66;4993527;28;7049;-61
2022/09/06 08:39:16;;;;;;;;;;;;;;;28.11;43.54;94604.69;5009461;28;7284;-60
2022/09/06 08:42:13;;;;;;;;;;;;;;;28.10;43.67;94617.03;5008351;28;9686;-61
2022/09/06 08:44:52;;;;;;;;;;;;;;;28.10;43.73;94628.81;4934454;28;9300;-60
2022/09/06 08:47:25;;;;;;;;;;;;;;;28.11;43.39;94624.03;4954302;28;9177;-61
2022/09/06 08:50:05;;;;;;;;;;;;;;;28.10;43.83;94623.28;4947352;28;9228;-60
2022/09/06 08:52:49;;;;;;;;;;;;;;;28.10;43.79;94628.81;4944270;28;9196;-60
2022/09/06 08:55:44;;;;;;;;;;;;;;;28.11;43.71;94635.84;4949871;28;9668;-61
2022/09/06 08:58:20;;;;;;;;;;;;;;;28.11;44.14;94624.78;4949577;28;9144;-60
2022/09/06 09:01:21;;;;;;;;;;;;;;;28.10;43.85;94620.53;4949746;28;9694;-61
2022/09/06 09:03:55;;;;;;;;;;;;;;;28.12;43.50;94626.28;4912205;29;7235;-60
2022/09/06 09:07:06;;;;;;;;;;;;;;;28.12;43.74;94628.31;4897398;29;7910;-61
2022/09/06 09:09:34;;;;;;;;;;;;;;;28.10;43.70;94623.28;4860919;29;7120;-60
2022/09/06 09:12:16;;;;;;;;;;;;;;;28.10;43.56;94625.31;4860633;29;7414;-60
2022/09/06 09:14:47;;;;;;;;;;;;;;;28.10;43.66;94617.03;4862653;29;8621;-61
2022/09/06 09:17:21;;;;;;;;;;;;;;;28.09;44.41;94618.28;4845584;29;9436;-60
2022/09/06 09:20:07;;;;;;;;;;;;;;;28.11;43.62;94610.97;4845582;29;7005;-60
2022/09/06 09:23:10;;;;;;;;;;;;;;;28.11;44.04;94610.97;4882714;29;9479;-60
2022/09/06 09:25:38;;;;;;;;;;;;;;;28.11;44.03;94610.97;4882375;29;7855;-60
2022/09/06 09:28:15;;;;;;;;;;;;;;;28.12;44.34;94603.44;4883220;29;7334;-60
2022/09/06 09:30:51;;;;;;;;;;;;;;;28.13;44.09;94604.91;4879642;29;7155;-61
2022/09/06 09:33:49;;;;;;;;;;;;;;;28.14;44.10;94607.13;4889157;29;7086;-60
2022/09/06 09:36:22;;;;;;;;;;;;;;;28.13;44.40;94602.91;4842899;29;7379;-60
2022/09/06 09:38:51;;;;;;;;;;;;;;;28.12;44.09;94595.84;4831018;29;8592;-60
2022/09/06 09:41:28;;;;;;;;;;;;;;;28.14;44.17;94585.00;4884943;29;7389;-61
2022/09/06 09:44:01;;;;;;;;;;;;;;;28.14;44.08;94589.81;4882024;29;7772;-60
2022/09/06 09:46:43;;;;;;;;;;;;;;;28.15;43.61;94580.25;4930299;28;9733;-61
2022/09/06 09:49:09;;;;;;;;;;;;;;;28.16;44.22;94576.22;4927408;28;9497;-60
2022/09/06 09:51:42;;;;;;;;;;;;;;;28.17;43.84;94577.69;4944586;28;7232;-61
2022/09/06 09:54:30;;;;;;;;;;;;;;;28.15;44.15;94569.94;4944764;28;7088;-60
2022/09/06 09:56:56;;;;;;;;;;;;;;;28.16;43.90;94573.44;4958193;28;8354;-60
2022/09/06 09:59:46;;;;;;;;;;;;;;;28.16;44.18;94565.91;4960894;28;7339;-60
2022/09/06 10:02:44;;;;;;;;;;;;;;;28.18;43.89;94565.38;4941432;28;7023;-60
2022/09/06 10:05:15;;;;;;;;;;;;;;;28.19;44.07;94547.50;4942357;28;9090;-60
2022/09/06 10:07:51;;;;;;;;;;;;;;;28.18;43.75;94543.25;4960836;28;7344;-60
2022/09/06 10:10:53;;;;;;;;;;;;;;;28.19;43.99;94542.72;4926972;28;8044;-60
2022/09/06 10:13:29;;;;;;;;;;;;;;;28.18;43.58;94540.47;4954483;28;7484;-60
2022/09/06 10:16:07;;;;;;;;;;;;;;;28.20;43.89;94540.72;4937801;28;7609;-60
2022/09/06 10:18:45;;;;;;;;;;;;;;;28.21;43.89;94542.19;4954006;28;6972;-60
2022/09/06 10:21:21;;;;;;;;;;;;;;;28.20;44.11;94538.69;4954551;28;9624;-60
2022/09/06 10:24:42;;;;;;;;;;;;;;;28.22;43.90;94527.09;4952971;28;7312;-60
2022/09/06 10:27:08;;;;;;;;;;;;;;;28.22;43.64;94527.09;4954561;28;7260;-60
2022/09/06 10:29:53;;;;;;;;;;;;;;;28.22;43.45;94524.34;4954799;28;8924;-60
2022/09/06 10:32:27;;;;;;;;;;;;;;;28.22;43.83;94511.25;4952874;28;7236;-60
2022/09/06 10:35:14;;;;;;;;;;;;;;;28.23;43.93;94517.53;4969794;28;9899;-60
2022/09/06 10:38:14;;;;;;;;;;;;;;;28.24;43.71;94510.72;4954339;28;7702;-61
2022/09/06 10:41:23;;;;;;;;;;;;;;;28.25;43.94;94503.94;4969640;28;7357;-60
2022/09/06 10:44:05;;;;;;;;;;;;;;;28.23;43.73;94498.19;4905662;29;7291;-60
2022/09/06 10:46:46;;;;;;;;;;;;;;;28.25;43.80;94504.66;4906269;29;7168;-60
2022/09/06 10:49:18;;;;;;;;;;;;;;;28.25;43.88;94499.13;4924548;29;9401;-60
2022/09/06 10:52:06;;;;;;;;;;;;;;;28.24;43.96;94497.66;4903799;29;10534;-60
2022/09/06 10:54:40;;;;;;;;;;;;;;;28.27;43.71;94498.63;4881799;29;9562;-60
2022/09/06 10:57:20;;;;;;;;;;;;;;;28.28;43.41;94489.03;4904091;29;8396;-60
2022/09/06 11:00:13;;;;;;;;;;;;;;;28.29;43.46;94490.53;4884573;29;7260;-60
2022/09/06 11:03:07;;;;;;;;;;;;;;;28.29;43.59;94488.53;4900570;29;7619;-60
2022/09/06 11:05:50;;;;;;;;;;;;;;;28.30;43.23;94486.47;4899558;29;7217;-60
2022/09/06 11:08:38;;;;;;;;;;;;;;;28.31;43.46;94488.00;4902718;29;7545;-60
2022/09/06 11:11:22;;;;;;;;;;;;;;;28.31;43.29;94476.94;4905190;29;7094;-60
2022/09/06 11:14:08;;;;;;;;;;;;;;;28.32;43.18;94478.41;4908393;29;7520;-60
2022/09/06 11:17:00;;;;;;;;;;;;;;;28.31;43.18;94472.16;4902324;29;7276;-60
2022/09/06 11:19:52;;;;;;;;;;;;;;;28.33;43.36;94477.13;4900342;29;7501;-60
2022/09/06 11:22:47;;;;;;;;;;;;;;;28.34;43.17;94473.09;5006019;28;9658;-60
2022/09/06 11:25:40;;;;;;;;;;;;;;;28.34;43.21;94476.59;5010370;28;9670;-60
2022/09/06 11:28:15;;;;;;;;;;;;;;;28.32;43.00;94467.34;5009938;28;6973;-60
2022/09/06 11:30:47;;;;;;;;;;;;;;;28.34;43.49;94471.06;4993195;28;8597;-60
2022/09/06 11:33:24;;;;;;;;;;;;;;;28.34;43.09;94481.38;5013297;28;7434;-60
2022/09/06 11:35:51;;;;;;;;;;;;;;;28.31;43.23;94471.38;4992933;28;7169;-60
2022/09/06 11:38:26;;;;;;;;;;;;;;;28.35;43.10;94482.88;4992767;28;7267;-60
2022/09/06 11:41:01;;;;;;;;;;;;;;;28.32;43.33;94478.41;5008110;28;9472;-60
2022/09/06 11:43:49;;;;;;;;;;;;;;;28.34;43.40;94492.44;4977392;28;7047;-60
2022/09/06 11:46:33;;;;;;;;;;;;;;;28.33;43.05;94497.25;5011506;28;7218;-60
2022/09/06 11:49:31;;;;;;;;;;;;;;;28.34;43.42;94509.06;5008002;28;7586;-60
2022/09/06 11:52:21;;;;;;;;;;;;;;;28.32;43.49;94501.28;4994053;28;8748;-60
2022/09/06 11:55:11;;;;;;;;;;;;;;;28.33;43.83;94511.09;4986563;28;7183;-60
2022/09/06 11:58:09;;;;;;;;;;;;;;;28.35;43.36;94513.31;4985338;28;9467;-60
2022/09/06 12:00:42;;;;;;;;;;;;;;;28.35;43.16;94507.78;4989515;28;8730;-60
2022/09/06 12:03:40;;;;;;;;;;;;;;;28.35;43.69;94511.31;4994243;28;7231;-60
2022/09/06 12:06:33;;;;;;;;;;;;;;;28.35;43.20;94507.78;4995069;28;7295;-60
2022/09/06 12:09:51;;;;;;;;;;;;;;;28.36;43.56;94520.38;4989801;28;7472;-60
2022/09/06 12:12:51;;;;;;;;;;;;;;;28.36;43.59;94523.13;4949983;28;9899;-60
2022/09/06 12:15:30;;;;;;;;;;;;;;;28.36;43.25;94523.84;4933092;28;9318;-60
2022/09/06 12:17:58;;;;;;;;;;;;;;;28.36;43.01;94517.59;4935110;28;7563;-61
2022/09/06 12:21:01;;;;;;;;;;;;;;;28.35;43.81;94527.91;4931006;28;9767;-61
2022/09/06 12:23:45;;;;;;;;;;;;;;;28.35;43.34;94543.75;4891745;29;7174;-61
2022/09/06 12:26:51;;;;;;;;;;;;;;;28.36;43.65;94542.50;4896954;29;7320;-61
2022/09/06 12:29:24;;;;;;;;;;;;;;;28.35;43.40;94538.22;4918309;29;7250;-60
2022/09/06 12:32:00;;;;;;;;;;;;;;;28.38;43.62;94537.91;4900709;29;7146;-60
2022/09/06 12:34:32;;;;;;;;;;;;;;;28.40;43.10;94544.94;4899852;29;7272;-60
2022/09/06 12:37:06;;;;;;;;;;;;;;;28.41;43.58;94529.81;4906091;29;9435;-60
2022/09/06 12:39:57;;;;;;;;;;;;;;;28.41;43.51;94535.34;4907130;29;7265;-60
2022/09/06 12:42:23;;;;;;;;;;;;;;;28.40;43.55;94536.66;4909582;29;7187;-60
2022/09/06 12:44:53;;;;;;;;;;;;;;;28.40;43.19;94529.09;4899662;29;9815;-61
2022/09/06 12:47:35;;;;;;;;;;;;;;;28.43;43.51;94530.06;4905431;29;7489;-61
2022/09/06 12:50:16;;;;;;;;;;;;;;;28.43;43.44;94530.78;4933634;28;7221;-61
2022/09/06 12:53:27;;;;;;;;;;;;;;;28.44;43.17;94512.19;4937533;28;7037;-61
2022/09/06 12:56:07;;;;;;;;;;;;;;;28.44;43.66;94506.66;4935792;28;9704;-59
2022/09/06 12:58:33;;;;;;;;;;;;;;;28.45;43.43;94524.75;4923990;28;7243;-59
2022/09/06 13:01:14;;;;;;;;;;;;;;;28.45;43.24;94519.94;4975448;28;7628;-59
2022/09/06 13:03:52;;;;;;;;;;;;;;;28.46;43.43;94510.38;5009749;28;8732;-58
2022/09/06 13:06:38;;;;;;;;;;;;;;;28.48;43.50;94501.53;5007472;28;7540;-59
2022/09/06 13:09:25;;;;;;;;;;;;;;;28.48;43.71;94513.38;4992303;28;8549;-59
2022/09/06 13:12:07;;;;;;;;;;;;;;;28.49;42.99;94522.41;4988084;28;7495;-59
2022/09/06 13:14:35;;;;;;;;;;;;;;;28.49;43.01;94516.88;4990027;28;7025;-59
2022/09/06 13:17:07;;;;;;;;;;;;;;;28.52;42.85;94518.59;4987959;28;7008;-59
2022/09/06 13:19:54;;;;;;;;;;;;;;;28.54;42.88;94500.19;4990981;28;7421;-59
2022/09/06 13:23:00;;;;;;;;;;;;;;;28.58;43.10;94492.34;5005302;28;6932;-59
2022/09/06 13:25:47;;;;;;;;;;;;;;;28.56;42.92;94502.44;4993154;28;7529;-59
2022/09/06 13:28:27;;;;;;;;;;;;;;;28.57;43.30;94495.63;4983807;28;9841;-59
2022/09/06 13:31:12;;;;;;;;;;;;;;;28.61;43.43;94487.78;4994046;28;7185;-59
2022/09/06 13:33:40;;;;;;;;;;;;;;;28.63;42.82;94497.06;5009708;28;9538;-59
2022/09/06 13:36:29;;;;;;;;;;;;;;;28.65;42.89;94480.66;5007177;28;7261;-59
2022/09/06 13:38:58;;;;;;;;;;;;;;;28.64;43.08;94487.47;4982151;28;9152;-59
2022/09/06 13:41:29;;;;;;;;;;;;;;;28.66;43.25;94486.94;4987868;28;7259;-59
2022/09/06 13:44:04;;;;;;;;;;;;;;;28.67;42.77;94496.72;4989234;28;9579;-59
2022/09/06 13:46:37;;;;;;;;;;;;;;;28.63;42.88;94485.97;4986796;28;6988;-59
2022/09/06 13:49:04;;;;;;;;;;;;;;;28.64;43.24;94493.03;5002739;28;9436;-58
2022/09/06 13:51:32;;;;;;;;;;;;;;;28.63;42.56;94488.75;5002928;28;7610;-59
2022/09/06 13:54:14;;;;;;;;;;;;;;;28.64;42.81;94490.25;5005041;28;7460;-59
2022/09/06 13:56:43;;;;;;;;;;;;;;;28.64;43.19;94470.88;5001830;28;6991;-58
2022/09/06 13:59:11;;;;;;;;;;;;;;;28.64;42.89;94468.13;4977912;28;7325;-59